sensor_id;sensor_type;location;lat;lon;timestamp;temperature;humidity
33109;HTU21D;19481;51.118;6.940;2023-09-19T00:02:55;16.21;61.47
33109;HTU21D;19481;51.118;6.940;2023-09-19T00:07:59;16.16;61.13
33109;HTU21D;19481;51.118;6.940;2023-09-19T00:13:03;16.11;61.27
33109;HTU21D;19481;51.118;6.940;2023-09-19T00:18:06;16.07;61.35
33109;HTU21D;19481;51.118;6.940;2023-09-19T00:23:09;16.03;61.31
33109;HTU21D;19481;51.118;6.940;2023-09-19T00:28:12;15.97;61.38
33109;HTU21D;19481;51.118;6.940;2023-09-19T00:33:14;15.92;63.63
33109;HTU21D;19481;51.118;6.940;2023-09-19T00:38:16;16.00;62.23
33109;HTU21D;19481;51.118;6.940;2023-09-19T00:43:22;15.99;61.68
33109;HTU21D;19481;51.118;6.940;2023-09-19T00:48:25;16.12;60.64
33109;HTU21D;19481;51.118;6.940;2023-09-19T00:53:30;16.20;60.55
33109;HTU21D;19481;51.118;6.940;2023-09-19T00:58:34;16.17;60.69
33109;HTU21D;19481;51.118;6.940;2023-09-19T01:03:36;16.15;60.90
33109;HTU21D;19481;51.118;6.940;2023-09-19T01:08:38;16.16;60.72
33109;HTU21D;19481;51.118;6.940;2023-09-19T01:13:51;16.07;66.53
33109;HTU21D;19481;51.118;6.940;2023-09-19T01:19:12;16.18;63.75
33109;HTU21D;19481;51.118;6.940;2023-09-19T01:24:34;16.20;62.38
33109;HTU21D;19481;51.118;6.940;2023-09-19T01:29:46;16.21;60.44
33109;HTU21D;19481;51.118;6.940;2023-09-19T01:34:52;16.22;61.73
33109;HTU21D;19481;51.118;6.940;2023-09-19T01:39:56;16.20;63.42
33109;HTU21D;19481;51.118;6.940;2023-09-19T01:45:03;16.14;60.80
33109;HTU21D;19481;51.118;6.940;2023-09-19T01:50:19;16.14;63.05
33109;HTU21D;19481;51.118;6.940;2023-09-19T01:55:26;16.25;60.27
33109;HTU21D;19481;51.118;6.940;2023-09-19T02:00:29;16.27;59.98
33109;HTU21D;19481;51.118;6.940;2023-09-19T02:05:34;16.24;59.99
33109;HTU21D;19481;51.118;6.940;2023-09-19T02:10:36;16.16;60.32
33109;HTU21D;19481;51.118;6.940;2023-09-19T02:15:37;16.18;61.12
33109;HTU21D;19481;51.118;6.940;2023-09-19T02:20:41;16.11;60.51
33109;HTU21D;19481;51.118;6.940;2023-09-19T02:25:43;16.10;60.71
33109;HTU21D;19481;51.118;6.940;2023-09-19T02:30:52;16.04;60.37
33109;HTU21D;19481;51.118;6.940;2023-09-19T02:35:56;16.00;60.89
33109;HTU21D;19481;51.118;6.940;2023-09-19T02:40:58;16.00;60.28
33109;HTU21D;19481;51.118;6.940;2023-09-19T02:46:00;15.93;63.20
33109;HTU21D;19481;51.118;6.940;2023-09-19T02:51:04;15.89;61.63
33109;HTU21D;19481;51.118;6.940;2023-09-19T02:56:06;15.87;60.38
33109;HTU21D;19481;51.118;6.940;2023-09-19T03:01:08;15.81;60.49
33109;HTU21D;19481;51.118;6.940;2023-09-19T03:06:12;15.74;60.99
33109;HTU21D;19481;51.118;6.940;2023-09-19T03:11:15;15.69;60.60
33109;HTU21D;19481;51.118;6.940;2023-09-19T03:16:19;15.61;60.70
33109;HTU21D;19481;51.118;6.940;2023-09-19T03:21:23;15.53;60.91
33109;HTU21D;19481;51.118;6.940;2023-09-19T03:26:26;15.48;60.73
33109;HTU21D;19481;51.118;6.940;2023-09-19T03:31:28;15.44;60.61
33109;HTU21D;19481;51.118;6.940;2023-09-19T03:36:31;15.37;60.78
33109;HTU21D;19481;51.118;6.940;2023-09-19T03:41:32;15.38;62.23
33109;HTU21D;19481;51.118;6.940;2023-09-19T03:46:36;15.31;60.66
33109;HTU21D;19481;51.118;6.940;2023-09-19T03:51:40;15.26;60.76
33109;HTU21D;19481;51.118;6.940;2023-09-19T03:56:42;15.16;61.14
33109;HTU21D;19481;51.118;6.940;2023-09-19T04:01:44;15.21;60.87
33109;HTU21D;19481;51.118;6.940;2023-09-19T04:06:48;15.23;60.68
33109;HTU21D;19481;51.118;6.940;2023-09-19T04:11:50;15.22;60.80
33109;HTU21D;19481;51.118;6.940;2023-09-19T04:16:51;15.22;60.73
33109;HTU21D;19481;51.118;6.940;2023-09-19T04:21:55;15.24;61.19
33109;HTU21D;19481;51.118;6.940;2023-09-19T04:26:56;15.16;60.78
33109;HTU21D;19481;51.118;6.940;2023-09-19T04:31:59;15.10;61.08
33109;HTU21D;19481;51.118;6.940;2023-09-19T04:37:02;15.10;61.01
33109;HTU21D;19481;51.118;6.940;2023-09-19T04:42:05;15.03;61.25
33109;HTU21D;19481;51.118;6.940;2023-09-19T04:47:07;15.00;61.33
33109;HTU21D;19481;51.118;6.940;2023-09-19T04:52:10;15.00;62.18
33109;HTU21D;19481;51.118;6.940;2023-09-19T04:57:11;14.92;61.60
33109;HTU21D;19481;51.118;6.940;2023-09-19T05:02:13;14.88;61.74
33109;HTU21D;19481;51.118;6.940;2023-09-19T05:07:16;14.94;61.59
33109;HTU21D;19481;51.118;6.940;2023-09-19T05:12:18;14.89;61.55
33109;HTU21D;19481;51.118;6.940;2023-09-19T05:17:20;14.88;61.57
33109;HTU21D;19481;51.118;6.940;2023-09-19T05:22:23;14.83;61.76
33109;HTU21D;19481;51.118;6.940;2023-09-19T05:27:24;14.85;61.83
33109;HTU21D;19481;51.118;6.940;2023-09-19T05:32:26;14.91;61.42
33109;HTU21D;19481;51.118;6.940;2023-09-19T05:37:29;14.95;61.29
33109;HTU21D;19481;51.118;6.940;2023-09-19T05:42:31;15.06;61.06
33109;HTU21D;19481;51.118;6.940;2023-09-19T05:47:32;15.18;60.59
33109;HTU21D;19481;51.118;6.940;2023-09-19T05:52:36;15.24;60.79
33109;HTU21D;19481;51.118;6.940;2023-09-19T05:57:38;15.31;60.70
33109;HTU21D;19481;51.118;6.940;2023-09-19T06:02:40;15.41;60.38
33109;HTU21D;19481;51.118;6.940;2023-09-19T06:07:43;15.46;60.29
33109;HTU21D;19481;51.118;6.940;2023-09-19T06:12:45;15.48;60.85
33109;HTU21D;19481;51.118;6.940;2023-09-19T06:17:47;15.55;60.25
33109;HTU21D;19481;51.118;6.940;2023-09-19T06:22:50;15.63;60.20
33109;HTU21D;19481;51.118;6.940;2023-09-19T06:27:52;15.70;60.06
33109;HTU21D;19481;51.118;6.940;2023-09-19T06:32:55;15.77;60.51
33109;HTU21D;19481;51.118;6.940;2023-09-19T06:37:58;15.80;60.34
33109;HTU21D;19481;51.118;6.940;2023-09-19T06:43:00;15.81;60.25
33109;HTU21D;19481;51.118;6.940;2023-09-19T06:48:05;15.95;60.05
33109;HTU21D;19481;51.118;6.940;2023-09-19T06:53:08;16.18;59.43
33109;HTU21D;19481;51.118;6.940;2023-09-19T06:58:10;16.18;59.60
33109;HTU21D;19481;51.118;6.940;2023-09-19T07:03:13;16.42;61.38
33109;HTU21D;19481;51.118;6.940;2023-09-19T07:08:18;16.56;59.12
33109;HTU21D;19481;51.118;6.940;2023-09-19T07:13:20;16.74;59.98
33109;HTU21D;19481;51.118;6.940;2023-09-19T07:18:21;16.94;59.91
33109;HTU21D;19481;51.118;6.940;2023-09-19T07:23:24;17.05;58.74
33109;HTU21D;19481;51.118;6.940;2023-09-19T07:28:26;17.30;58.34
33109;HTU21D;19481;51.118;6.940;2023-09-19T07:33:28;17.66;57.59
33109;HTU21D;19481;51.118;6.940;2023-09-19T07:38:31;18.43;56.05
33109;HTU21D;19481;51.118;6.940;2023-09-19T07:43:33;18.71;55.98
33109;HTU21D;19481;51.118;6.940;2023-09-19T07:48:34;18.87;56.27
33109;HTU21D;19481;51.118;6.940;2023-09-19T07:53:39;19.41;55.36
33109;HTU21D;19481;51.118;6.940;2023-09-19T07:58:42;19.47;54.75
33109;HTU21D;19481;51.118;6.940;2023-09-19T08:03:44;19.35;56.44
33109;HTU21D;19481;51.118;6.940;2023-09-19T08:08:50;20.01;53.38
33109;HTU21D;19481;51.118;6.940;2023-09-19T08:13:54;20.63;53.63
33109;HTU21D;19481;51.118;6.940;2023-09-19T08:18:55;20.66;54.10
33109;HTU21D;19481;51.118;6.940;2023-09-19T08:23:58;20.65;54.30
33109;HTU21D;19481;51.118;6.940;2023-09-19T08:29:00;20.78;53.72
33109;HTU21D;19481;51.118;6.940;2023-09-19T08:34:06;20.72;54.48
33109;HTU21D;19481;51.118;6.940;2023-09-19T08:39:08;20.58;55.45
33109;HTU21D;19481;51.118;6.940;2023-09-19T08:44:11;20.46;53.60
33109;HTU21D;19481;51.118;6.940;2023-09-19T08:49:23;21.36;52.06
33109;HTU21D;19481;51.118;6.940;2023-09-19T08:54:33;20.72;54.42
33109;HTU21D;19481;51.118;6.940;2023-09-19T08:59:38;21.45;52.29
33109;HTU21D;19481;51.118;6.940;2023-09-19T09:04:41;21.45;48.28
33109;HTU21D;19481;51.118;6.940;2023-09-19T09:09:45;21.59;51.94
33109;HTU21D;19481;51.118;6.940;2023-09-19T09:14:47;22.03;50.18
33109;HTU21D;19481;51.118;6.940;2023-09-19T09:19:52;22.23;44.61
33109;HTU21D;19481;51.118;6.940;2023-09-19T09:24:56;22.60;49.58
33109;HTU21D;19481;51.118;6.940;2023-09-19T09:29:58;22.61;49.92
33109;HTU21D;19481;51.118;6.940;2023-09-19T09:35:01;23.28;47.33
33109;HTU21D;19481;51.118;6.940;2023-09-19T09:40:07;22.41;45.73
33109;HTU21D;19481;51.118;6.940;2023-09-19T09:45:21;22.53;42.00
33109;HTU21D;19481;51.118;6.940;2023-09-19T09:50:37;22.61;44.25
33109;HTU21D;19481;51.118;6.940;2023-09-19T09:56:01;23.54;37.55
33109;HTU21D;19481;51.118;6.940;2023-09-19T10:01:06;23.17;48.20
33109;HTU21D;19481;51.118;6.940;2023-09-19T10:06:12;23.53;45.59
33109;HTU21D;19481;51.118;6.940;2023-09-19T10:11:32;23.31;48.48
33109;HTU21D;19481;51.118;6.940;2023-09-19T10:16:40;23.51;46.16
33109;HTU21D;19481;51.118;6.940;2023-09-19T10:21:45;23.14;48.66
33109;HTU21D;19481;51.118;6.940;2023-09-19T10:26:49;22.60;42.81
33109;HTU21D;19481;51.118;6.940;2023-09-19T10:31:52;22.70;45.38
33109;HTU21D;19481;51.118;6.940;2023-09-19T10:36:54;22.83;48.31
33109;HTU21D;19481;51.118;6.940;2023-09-19T10:42:01;22.68;48.47
33109;HTU21D;19481;51.118;6.940;2023-09-19T10:47:05;22.56;43.45
33109;HTU21D;19481;51.118;6.940;2023-09-19T10:52:07;22.62;46.90
33109;HTU21D;19481;51.118;6.940;2023-09-19T10:57:19;23.13;44.54
33109;HTU21D;19481;51.118;6.940;2023-09-19T11:02:22;23.12;44.21
33109;HTU21D;19481;51.118;6.940;2023-09-19T11:07:25;23.53;45.51
33109;HTU21D;19481;51.118;6.940;2023-09-19T11:12:50;23.68;36.85
33109;HTU21D;19481;51.118;6.940;2023-09-19T11:17:52;23.85;44.77
33109;HTU21D;19481;51.118;6.940;2023-09-19T11:23:19;23.66;35.99
33109;HTU21D;19481;51.118;6.940;2023-09-19T11:28:35;24.41;36.03
33109;HTU21D;19481;51.118;6.940;2023-09-19T11:33:39;24.18;44.66
33109;HTU21D;19481;51.118;6.940;2023-09-19T11:38:59;24.32;34.37
33109;HTU21D;19481;51.118;6.940;2023-09-19T11:44:32;24.66;33.91
33109;HTU21D;19481;51.118;6.940;2023-09-19T11:49:35;24.31;37.88
33109;HTU21D;19481;51.118;6.940;2023-09-19T11:54:43;24.35;40.91
33109;HTU21D;19481;51.118;6.940;2023-09-19T11:59:48;24.56;42.87
33109;HTU21D;19481;51.118;6.940;2023-09-19T12:04:53;24.73;38.84
33109;HTU21D;19481;51.118;6.940;2023-09-19T12:10:03;24.48;40.43
33109;HTU21D;19481;51.118;6.940;2023-09-19T12:15:08;24.05;41.46
33109;HTU21D;19481;51.118;6.940;2023-09-19T12:20:11;23.18;41.21
33109;HTU21D;19481;51.118;6.940;2023-09-19T12:25:13;23.29;44.87
33109;HTU21D;19481;51.118;6.940;2023-09-19T12:30:18;23.09;44.66
33109;HTU21D;19481;51.118;6.940;2023-09-19T12:35:27;22.66;38.20
33109;HTU21D;19481;51.118;6.940;2023-09-19T12:40:31;22.63;44.93
33109;HTU21D;19481;51.118;6.940;2023-09-19T12:45:35;22.42;38.64
33109;HTU21D;19481;51.118;6.940;2023-09-19T12:51:00;22.24;38.71
33109;HTU21D;19481;51.118;6.940;2023-09-19T12:56:06;22.24;40.08
33109;HTU21D;19481;51.118;6.940;2023-09-19T13:01:15;22.21;40.41
33109;HTU21D;19481;51.118;6.940;2023-09-19T13:06:35;22.20;38.65
33109;HTU21D;19481;51.118;6.940;2023-09-19T13:11:39;22.09;44.32
33109;HTU21D;19481;51.118;6.940;2023-09-19T13:16:58;21.95;39.23
33109;HTU21D;19481;51.118;6.940;2023-09-19T13:22:03;22.40;43.41
33109;HTU21D;19481;51.118;6.940;2023-09-19T13:27:06;23.00;39.39
33109;HTU21D;19481;51.118;6.940;2023-09-19T13:32:09;22.38;40.10
33109;HTU21D;19481;51.118;6.940;2023-09-19T13:37:11;22.49;42.26
33109;HTU21D;19481;51.118;6.940;2023-09-19T13:42:16;22.67;42.87
33109;HTU21D;19481;51.118;6.940;2023-09-19T13:47:20;22.76;41.90
33109;HTU21D;19481;51.118;6.940;2023-09-19T13:52:24;22.68;40.04
33109;HTU21D;19481;51.118;6.940;2023-09-19T13:57:28;22.68;41.42
33109;HTU21D;19481;51.118;6.940;2023-09-19T14:02:31;22.47;43.39
33109;HTU21D;19481;51.118;6.940;2023-09-19T14:07:33;22.28;44.26
33109;HTU21D;19481;51.118;6.940;2023-09-19T14:12:34;22.05;44.61
33109;HTU21D;19481;51.118;6.940;2023-09-19T14:17:37;22.02;41.65
33109;HTU21D;19481;51.118;6.940;2023-09-19T14:22:40;21.92;44.61
33109;HTU21D;19481;51.118;6.940;2023-09-19T14:27:42;21.79;44.30
33109;HTU21D;19481;51.118;6.940;2023-09-19T14:32:45;21.93;43.75
33109;HTU21D;19481;51.118;6.940;2023-09-19T14:37:46;22.39;43.42
33109;HTU21D;19481;51.118;6.940;2023-09-19T14:42:48;22.46;42.61
33109;HTU21D;19481;51.118;6.940;2023-09-19T14:47:51;22.31;42.40
33109;HTU21D;19481;51.118;6.940;2023-09-19T14:52:55;22.60;42.23
33109;HTU21D;19481;51.118;6.940;2023-09-19T14:57:57;22.14;42.71
33109;HTU21D;19481;51.118;6.940;2023-09-19T15:03:01;21.87;44.46
33109;HTU21D;19481;51.118;6.940;2023-09-19T15:08:03;21.68;45.11
33109;HTU21D;19481;51.118;6.940;2023-09-19T15:13:04;21.33;42.36
33109;HTU21D;19481;51.118;6.940;2023-09-19T15:18:07;21.20;43.26
33109;HTU21D;19481;51.118;6.940;2023-09-19T15:23:09;21.02;45.99
33109;HTU21D;19481;51.118;6.940;2023-09-19T15:28:13;21.06;45.66
33109;HTU21D;19481;51.118;6.940;2023-09-19T15:33:16;20.90;45.40
33109;HTU21D;19481;51.118;6.940;2023-09-19T15:38:18;20.87;45.51
33109;HTU21D;19481;51.118;6.940;2023-09-19T15:43:19;20.79;45.67
33109;HTU21D;19481;51.118;6.940;2023-09-19T15:48:23;20.76;45.63
33109;HTU21D;19481;51.118;6.940;2023-09-19T15:53:25;20.72;45.69
33109;HTU21D;19481;51.118;6.940;2023-09-19T15:58:26;20.79;45.42
33109;HTU21D;19481;51.118;6.940;2023-09-19T16:03:29;20.81;45.33
33109;HTU21D;19481;51.118;6.940;2023-09-19T16:08:31;20.84;44.99
33109;HTU21D;19481;51.118;6.940;2023-09-19T16:13:35;20.79;45.49
33109;HTU21D;19481;51.118;6.940;2023-09-19T16:18:38;20.74;45.47
33109;HTU21D;19481;51.118;6.940;2023-09-19T16:23:41;20.66;45.36
33109;HTU21D;19481;51.118;6.940;2023-09-19T16:28:46;20.65;45.64
33109;HTU21D;19481;51.118;6.940;2023-09-19T16:33:49;20.64;45.60
33109;HTU21D;19481;51.118;6.940;2023-09-19T16:38:51;20.68;45.22
33109;HTU21D;19481;51.118;6.940;2023-09-19T16:43:53;20.65;45.57
33109;HTU21D;19481;51.118;6.940;2023-09-19T16:48:56;20.58;45.83
33109;HTU21D;19481;51.118;6.940;2023-09-19T16:53:57;20.47;46.12
33109;HTU21D;19481;51.118;6.940;2023-09-19T16:58:59;20.30;46.44
33109;HTU21D;19481;51.118;6.940;2023-09-19T17:04:03;20.18;46.66
33109;HTU21D;19481;51.118;6.940;2023-09-19T17:09:04;20.11;46.71
33109;HTU21D;19481;51.118;6.940;2023-09-19T17:14:08;20.10;46.54
33109;HTU21D;19481;51.118;6.940;2023-09-19T17:19:12;20.01;46.59
33109;HTU21D;19481;51.118;6.940;2023-09-19T17:24:14;19.94;46.62
33109;HTU21D;19481;51.118;6.940;2023-09-19T17:29:15;19.88;46.76
33109;HTU21D;19481;51.118;6.940;2023-09-19T17:34:20;19.85;46.47
33109;HTU21D;19481;51.118;6.940;2023-09-19T17:39:21;19.82;46.73
33109;HTU21D;19481;51.118;6.940;2023-09-19T17:44:24;19.81;46.75
33109;HTU21D;19481;51.118;6.940;2023-09-19T17:49:35;19.77;46.73
33109;HTU21D;19481;51.118;6.940;2023-09-19T17:54:37;19.72;46.94
33109;HTU21D;19481;51.118;6.940;2023-09-19T17:59:39;19.70;46.89
33109;HTU21D;19481;51.118;6.940;2023-09-19T18:04:42;19.67;46.91
33109;HTU21D;19481;51.118;6.940;2023-09-19T18:09:43;19.61;47.11
33109;HTU21D;19481;51.118;6.940;2023-09-19T18:14:45;19.63;46.99
33109;HTU21D;19481;51.118;6.940;2023-09-19T18:19:48;19.60;47.08
33109;HTU21D;19481;51.118;6.940;2023-09-19T18:24:51;19.57;47.22
33109;HTU21D;19481;51.118;6.940;2023-09-19T18:29:52;19.56;47.24
33109;HTU21D;19481;51.118;6.940;2023-09-19T18:34:55;19.52;47.35
33109;HTU21D;19481;51.118;6.940;2023-09-19T18:39:57;19.51;47.42
33109;HTU21D;19481;51.118;6.940;2023-09-19T18:44:59;19.48;47.42
33109;HTU21D;19481;51.118;6.940;2023-09-19T18:50:03;19.46;47.60
33109;HTU21D;19481;51.118;6.940;2023-09-19T18:55:06;19.42;47.54
33109;HTU21D;19481;51.118;6.940;2023-09-19T19:00:10;19.42;47.47
33109;HTU21D;19481;51.118;6.940;2023-09-19T19:05:16;19.40;47.71
33109;HTU21D;19481;51.118;6.940;2023-09-19T19:10:18;19.38;47.69
33109;HTU21D;19481;51.118;6.940;2023-09-19T19:15:20;19.37;47.76
33109;HTU21D;19481;51.118;6.940;2023-09-19T19:20:25;19.36;47.89
33109;HTU21D;19481;51.118;6.940;2023-09-19T19:25:26;19.35;47.83
33109;HTU21D;19481;51.118;6.940;2023-09-19T19:30:28;19.31;47.92
33109;HTU21D;19481;51.118;6.940;2023-09-19T19:35:31;19.30;47.99
33109;HTU21D;19481;51.118;6.940;2023-09-19T19:40:33;19.27;48.22
33109;HTU21D;19481;51.118;6.940;2023-09-19T19:45:35;19.28;47.93
33109;HTU21D;19481;51.118;6.940;2023-09-19T19:50:38;19.24;48.92
33109;HTU21D;19481;51.118;6.940;2023-09-19T19:55:42;19.22;48.14
33109;HTU21D;19481;51.118;6.940;2023-09-19T20:00:43;19.24;48.15
33109;HTU21D;19481;51.118;6.940;2023-09-19T20:05:46;19.21;48.27
33109;HTU21D;19481;51.118;6.940;2023-09-19T20:10:49;19.14;48.39
33109;HTU21D;19481;51.118;6.940;2023-09-19T20:15:54;19.14;48.56
33109;HTU21D;19481;51.118;6.940;2023-09-19T20:21:03;19.12;49.52
33109;HTU21D;19481;51.118;6.940;2023-09-19T20:26:10;19.11;48.46
33109;HTU21D;19481;51.118;6.940;2023-09-19T20:31:12;19.05;48.64
33109;HTU21D;19481;51.118;6.940;2023-09-19T20:36:16;19.03;48.73
33109;HTU21D;19481;51.118;6.940;2023-09-19T20:41:17;19.00;48.86
33109;HTU21D;19481;51.118;6.940;2023-09-19T20:46:19;19.00;48.95
33109;HTU21D;19481;51.118;6.940;2023-09-19T20:51:24;18.99;50.37
33109;HTU21D;19481;51.118;6.940;2023-09-19T20:56:27;18.97;48.87
33109;HTU21D;19481;51.118;6.940;2023-09-19T21:01:32;18.97;49.32
33109;HTU21D;19481;51.118;6.940;2023-09-19T21:06:36;18.97;49.19
33109;HTU21D;19481;51.118;6.940;2023-09-19T21:11:38;18.96;49.09
33109;HTU21D;19481;51.118;6.940;2023-09-19T21:16:41;18.97;49.47
33109;HTU21D;19481;51.118;6.940;2023-09-19T21:21:44;18.95;49.37
33109;HTU21D;19481;51.118;6.940;2023-09-19T21:26:46;18.94;49.56
33109;HTU21D;19481;51.118;6.940;2023-09-19T21:31:48;18.92;49.36
33109;HTU21D;19481;51.118;6.940;2023-09-19T21:36:51;18.92;50.48
33109;HTU21D;19481;51.118;6.940;2023-09-19T21:41:54;18.91;49.49
33109;HTU21D;19481;51.118;6.940;2023-09-19T21:46:55;18.88;49.60
33109;HTU21D;19481;51.118;6.940;2023-09-19T21:51:59;18.89;49.63
33109;HTU21D;19481;51.118;6.940;2023-09-19T21:57:01;18.87;49.73
33109;HTU21D;19481;51.118;6.940;2023-09-19T22:02:03;18.87;49.80
33109;HTU21D;19481;51.118;6.940;2023-09-19T22:07:09;18.87;49.76
33109;HTU21D;19481;51.118;6.940;2023-09-19T22:12:10;18.87;49.85
33109;HTU21D;19481;51.118;6.940;2023-09-19T22:17:13;18.85;51.04
33109;HTU21D;19481;51.118;6.940;2023-09-19T22:22:15;18.84;50.21
33109;HTU21D;19481;51.118;6.940;2023-09-19T22:27:17;18.83;50.24
33109;HTU21D;19481;51.118;6.940;2023-09-19T22:32:20;18.83;50.08
33109;HTU21D;19481;51.118;6.940;2023-09-19T22:37:24;18.80;50.17
33109;HTU21D;19481;51.118;6.940;2023-09-19T22:42:26;18.81;50.27
33109;HTU21D;19481;51.118;6.940;2023-09-19T22:47:29;18.80;50.47
33109;HTU21D;19481;51.118;6.940;2023-09-19T22:52:32;18.82;50.43
33109;HTU21D;19481;51.118;6.940;2023-09-19T22:57:36;18.82;50.33
33109;HTU21D;19481;51.118;6.940;2023-09-19T23:02:38;18.82;50.72
33109;HTU21D;19481;51.118;6.940;2023-09-19T23:07:43;18.81;50.79
33109;HTU21D;19481;51.118;6.940;2023-09-19T23:12:48;18.79;50.50
33109;HTU21D;19481;51.118;6.940;2023-09-19T23:17:49;18.77;50.60
33109;HTU21D;19481;51.118;6.940;2023-09-19T23:22:53;18.74;50.68
33109;HTU21D;19481;51.118;6.940;2023-09-19T23:27:58;18.72;51.11
33109;HTU21D;19481;51.118;6.940;2023-09-19T23:33:04;18.72;50.92
33109;HTU21D;19481;51.118;6.940;2023-09-19T23:38:08;18.70;51.42
33109;HTU21D;19481;51.118;6.940;2023-09-19T23:43:09;18.69;52.45
33109;HTU21D;19481;51.118;6.940;2023-09-19T23:48:12;18.66;51.93
33109;HTU21D;19481;51.118;6.940;2023-09-19T23:53:16;18.64;51.08
33109;HTU21D;19481;51.118;6.940;2023-09-19T23:58:17;18.64;51.11
